Time;durP1;ratioP1;P1;durP2;ratioP2;P2;SDS_P1;SDS_P2;PMS_P1;PMS_P2;Temp;Humidity;BMP_temperature;BMP_pressure;BME280_temperature;BME280_humidity;BME280_pressure;Samples;Min_cycle;Max_cycle;Signal;HPM_P1;HPM_P2
2022/06/06 00:02:06;;;;;;;6.00;2.60;;;;;;;27.44;46.71;100800.75;5087801;28;20409;-61
2022/06/06 00:04:35;;;;;;;4.73;2.50;;;;;;;27.63;46.36;100794.66;5079484;28;20401;-61
2022/06/06 00:09:12;;;;;;;4.90;3.00;;;;;;;27.52;46.59;100823.84;5103726;27;20424;-62
2022/06/06 00:11:39;;;;;;;3.78;2.53;;;;;;;27.43;46.92;100829.06;5086154;28;20421;-61
2022/06/06 00:14:09;;;;;;;3.72;2.80;;;;;;;27.46;46.68;100811.38;5086695;28;20410;-62
2022/06/06 00:16:36;;;;;;;3.10;2.67;;;;;;;27.28;46.97;100815.56;5086440;28;20421;-62
2022/06/06 00:19:04;;;;;;;4.07;2.70;;;;;;;26.94;47.82;100816.19;5085993;28;20420;-61
2022/06/06 00:21:31;;;;;;;3.70;2.90;;;;;;;26.89;48.41;100825.19;5085911;28;20907;-62
2022/06/06 00:23:59;;;;;;;5.27;2.90;;;;;;;26.84;48.54;100838.78;5071520;28;20420;-61
2022/06/06 00:26:29;;;;;;;3.97;3.28;;;;;;;26.96;48.61;100854.81;5079177;28;20455;-62
2022/06/06 00:28:57;;;;;;;5.65;3.60;;;;;;;26.98;48.41;100851.81;5079260;28;20437;-61
2022/06/06 00:36:55;;;;;;;4.95;3.72;;;;;;;26.46;50.42;100854.59;5074594;28;20406;-61
2022/06/06 00:39:22;;;;;;;4.75;3.80;;;;;;;26.19;51.50;100843.19;5086147;28;20414;-61
2022/06/06 00:41:53;;;;;;;6.95;3.60;;;;;;;26.43;50.78;100852.41;5078166;28;20412;-61
2022/06/06 00:44:22;;;;;;;5.47;3.60;;;;;;;26.20;51.58;100844.81;5080090;28;20413;-61
2022/06/06 00:46:53;;;;;;;5.38;3.83;;;;;;;25.87;52.57;100866.75;5072544;28;20414;-61
2022/06/06 00:49:26;;;;;;;4.80;3.92;;;;;;;25.91;52.71;100877.91;5085910;28;20417;-61
2022/06/06 00:51:54;;;;;;;5.43;3.90;;;;;;;26.01;52.73;100880.66;5083371;28;20817;-61
2022/06/06 00:54:23;;;;;;;10.60;5.20;;;;;;;26.24;54.03;100897.56;5076597;28;20413;-61
2022/06/06 00:56:57;;;;;;;8.80;4.73;;;;;;;26.21;54.35;100898.88;5076043;28;20503;-61
2022/06/06 00:59:28;;;;;;;8.57;4.60;;;;;;;25.90;54.90;100889.84;5082812;28;20524;-61
2022/06/06 01:01:56;;;;;;;5.67;4.50;;;;;;;25.44;56.12;100885.09;5076768;28;20846;-61
2022/06/06 01:04:26;;;;;;;7.32;4.90;;;;;;;25.29;56.99;100883.13;5080937;28;20449;-61
2022/06/06 01:06:53;;;;;;;7.05;4.50;;;;;;;25.10;56.95;100880.03;5085292;28;20485;-61
2022/06/06 01:09:23;;;;;;;6.07;5.15;;;;;;;25.34;56.50;100875.00;5085383;28;20434;-59
2022/06/06 01:11:56;;;;;;;7.68;4.78;;;;;;;25.41;56.01;100876.66;5077451;28;20464;-61
2022/06/06 01:14:25;;;;;;;5.63;4.53;;;;;;;24.80;56.40;100881.47;5085630;28;20538;-61
2022/06/06 01:17:00;;;;;;;6.53;4.70;;;;;;;24.61;56.77;100872.13;5070901;28;20484;-61
2022/06/06 01:21:34;;;;;;;5.57;4.80;;;;;;;24.23;56.60;100855.00;5114569;27;20752;-59
2022/06/06 01:24:32;;;;;;;5.30;4.80;;;;;;;24.17;57.19;100851.44;5092710;28;20405;-59
2022/06/06 01:27:21;;;;;;;8.35;4.97;;;;;;;24.23;56.80;100846.88;5089379;28;20469;-59
2022/06/06 01:29:57;;;;;;;5.30;4.80;;;;;;;24.25;56.74;100847.41;5096774;28;20452;-60
2022/06/06 01:32:27;;;;;;;5.32;4.82;;;;;;;24.43;56.34;100848.91;5093911;28;20419;-59
2022/06/06 01:34:55;;;;;;;5.20;4.63;;;;;;;24.66;55.64;100866.75;5086302;28;20406;-60
2022/06/06 01:37:25;;;;;;;5.82;4.60;;;;;;;24.58;56.50;100853.69;5090049;28;20410;-59
2022/06/06 01:39:52;;;;;;;6.22;4.80;;;;;;;24.78;55.38;100850.28;5099636;28;20443;-59
2022/06/06 01:42:24;;;;;;;8.75;4.90;;;;;;;24.51;56.33;100840.31;5087099;28;20406;-59
2022/06/06 01:44:57;;;;;;;6.15;4.60;;;;;;;24.24;56.75;100834.97;5104998;28;20419;-60
2022/06/06 01:47:29;;;;;;;5.30;4.80;;;;;;;24.36;56.16;100826.66;5094498;28;20442;-60
2022/06/06 01:49:57;;;;;;;6.78;4.93;;;;;;;24.13;56.72;100831.34;5101432;28;20414;-60
2022/06/06 01:52:25;;;;;;;5.68;5.18;;;;;;;24.42;56.39;100856.25;5097665;28;20408;-60
2022/06/06 01:54:55;;;;;;;6.60;5.03;;;;;;;24.52;55.42;100847.34;5091737;28;20775;-60
2022/06/06 01:57:23;;;;;;;5.77;5.17;;;;;;;24.46;55.83;100844.88;5085995;28;20413;-60
2022/06/06 01:59:53;;;;;;;5.90;5.10;;;;;;;24.37;56.45;100849.97;5088592;28;20941;-59
2022/06/06 02:02:20;;;;;;;5.60;5.00;;;;;;;24.56;55.75;100844.97;5085929;28;20769;-60
2022/06/06 02:04:47;;;;;;;6.22;5.05;;;;;;;24.67;55.76;100846.69;5086422;28;20493;-60
2022/06/06 02:08:25;;;;;;;5.50;5.00;;;;;;;24.75;55.06;100853.53;5095232;27;20402;-60
2022/06/06 02:10:52;;;;;;;5.50;5.00;;;;;;;24.87;54.50;100859.56;5099855;28;20421;-61
2022/06/06 02:13:19;;;;;;;7.85;4.97;;;;;;;25.02;54.25;100866.16;5086346;28;20418;-61
2022/06/06 02:15:46;;;;;;;5.93;4.97;;;;;;;24.74;54.84;100873.56;5086605;28;20927;-61
2022/06/06 02:18:14;;;;;;;6.83;5.43;;;;;;;24.73;54.60;100889.03;5086602;28;20924;-61
2022/06/06 02:20:41;;;;;;;6.07;4.82;;;;;;;24.85;54.26;100888.84;5086190;28;20414;-61
2022/06/06 02:23:08;;;;;;;7.10;5.10;;;;;;;24.79;54.49;100893.41;5098440;28;20431;-61
2022/06/06 02:25:37;;;;;;;5.88;5.28;;;;;;;24.39;55.44;100889.25;5088273;28;20421;-61
2022/06/06 02:28:05;;;;;;;6.97;5.28;;;;;;;24.43;55.37;100893.13;5086265;28;20430;-61
2022/06/06 02:30:34;;;;;;;6.07;5.47;;;;;;;24.20;55.97;100901.53;5086089;28;20494;-61
2022/06/06 02:33:01;;;;;;;5.97;5.38;;;;;;;24.08;56.20;100912.56;5095453;28;20416;-61
2022/06/06 02:35:31;;;;;;;6.18;5.22;;;;;;;24.26;55.58;100899.72;5090999;28;20418;-60
2022/06/06 02:37:58;;;;;;;8.07;5.55;;;;;;;24.16;55.99;100903.94;5085927;28;21061;-61
2022/06/06 02:40:27;;;;;;;7.30;5.17;;;;;;;24.09;56.18;100883.56;5086492;28;20426;-61
2022/06/06 02:42:56;;;;;;;5.97;5.40;;;;;;;24.05;56.75;100897.63;5090775;28;20417;-61
2022/06/06 02:45:23;;;;;;;5.68;5.13;;;;;;;23.93;56.70;100921.34;5092689;28;20405;-61
2022/06/06 02:47:51;;;;;;;5.53;5.03;;;;;;;23.81;57.02;100939.59;5085640;28;20429;-61
2022/06/06 02:50:20;;;;;;;7.45;5.50;;;;;;;23.75;56.82;100937.88;5096500;28;20416;-61
2022/06/06 02:52:48;;;;;;;5.80;5.20;;;;;;;23.52;57.59;100956.00;5091879;28;20422;-61
2022/06/06 02:55:15;;;;;;;6.32;5.72;;;;;;;23.52;57.80;100952.50;5097178;28;20414;-61
2022/06/06 02:57:45;;;;;;;6.38;5.53;;;;;;;23.48;57.88;100957.56;5099573;28;20416;-60
2022/06/06 03:00:16;;;;;;;6.45;5.30;;;;;;;23.37;58.53;100955.78;5085545;28;20413;-61
2022/06/06 03:02:43;;;;;;;5.95;5.45;;;;;;;23.65;57.48;100949.41;5085371;28;21007;-60
2022/06/06 03:05:10;;;;;;;7.15;5.47;;;;;;;23.66;57.65;100949.16;5085234;28;20411;-61
2022/06/06 03:07:48;;;;;;;6.28;5.68;;;;;;;23.66;57.82;100956.47;5085150;28;20947;-61
2022/06/06 03:10:24;;;;;;;6.25;5.65;;;;;;;23.54;57.74;100972.00;5072022;28;20417;-60
2022/06/06 03:13:04;;;;;;;6.40;5.43;;;;;;;23.50;57.96;100966.25;5099269;28;20413;-61
2022/06/06 03:21:46;;;;;;;6.50;5.70;;;;;;;23.46;58.57;100976.75;5071552;28;20923;-61
2022/06/06 03:24:26;;;;;;;6.43;5.82;;;;;;;23.35;58.44;100976.84;5077144;28;20465;-61
2022/06/06 03:27:09;;;;;;;6.30;5.70;;;;;;;23.42;58.42;100959.38;5070743;28;20449;-60
2022/06/06 03:29:54;;;;;;;6.60;5.68;;;;;;;23.55;57.65;100982.56;5074255;28;20489;-61
2022/06/06 03:32:34;;;;;;;6.57;5.70;;;;;;;23.32;58.65;100971.94;5074483;28;20439;-61
2022/06/06 03:35:08;;;;;;;8.10;6.00;;;;;;;23.13;59.49;100977.63;5080733;28;20408;-60
2022/06/06 03:37:41;;;;;;;8.75;6.25;;;;;;;23.23;59.26;100974.28;5071798;28;20410;-61
2022/06/06 03:40:16;;;;;;;11.30;6.17;;;;;;;23.08;60.26;100988.34;5071863;28;20920;-59
2022/06/06 03:42:53;;;;;;;7.18;6.38;;;;;;;22.93;60.34;100986.22;5085353;28;20405;-61
2022/06/06 03:45:26;;;;;;;7.72;6.20;;;;;;;23.15;60.08;100996.31;5081973;28;20835;-61
2022/06/06 03:48:04;;;;;;;7.68;6.25;;;;;;;23.11;59.86;101001.41;5087460;28;20434;-61
2022/06/06 03:50:42;;;;;;;8.25;6.47;;;;;;;22.94;60.42;101006.78;5083317;28;20907;-61
2022/06/06 03:53:15;;;;;;;7.75;6.10;;;;;;;22.86;60.61;101007.97;5076995;28;20504;-61
2022/06/06 03:55:55;;;;;;;7.07;6.35;;;;;;;22.84;60.93;101009.31;5078388;28;20954;-60
2022/06/06 03:58:25;;;;;;;7.25;6.47;;;;;;;23.07;60.63;101014.59;5064204;28;20412;-61
2022/06/06 04:00:55;;;;;;;7.13;6.43;;;;;;;22.88;60.52;101023.97;5080005;28;20507;-61
2022/06/06 04:03:25;;;;;;;8.40;6.55;;;;;;;23.03;60.91;101029.63;5080763;28;20421;-61
2022/06/06 04:05:53;;;;;;;7.40;6.45;;;;;;;23.04;60.75;101027.75;5078016;28;20489;-61
2022/06/06 04:08:20;;;;;;;9.15;6.80;;;;;;;23.27;60.03;101030.31;5083803;28;20436;-61
2022/06/06 04:10:58;;;;;;;7.40;6.25;;;;;;;23.23;60.02;101022.94;5079602;28;20797;-59
2022/06/06 04:13:43;;;;;;;7.88;6.43;;;;;;;23.30;59.94;101018.19;5080571;28;20417;-61
2022/06/06 04:16:23;;;;;;;9.40;6.13;;;;;;;23.01;60.29;101020.97;5083266;28;20460;-61
2022/06/06 04:19:01;;;;;;;7.47;6.70;;;;;;;23.15;59.90;101029.56;5082516;28;20417;-59
2022/06/06 04:21:46;;;;;;;8.10;7.00;;;;;;;22.91;60.49;101027.00;5074000;28;20647;-61
2022/06/06 04:24:34;;;;;;;9.15;7.57;;;;;;;22.97;60.26;101029.78;5077407;28;20474;-62
2022/06/06 04:27:08;;;;;;;8.65;7.00;;;;;;;22.99;60.44;101024.94;5075237;28;20437;-61
2022/06/06 04:29:44;;;;;;;7.43;6.68;;;;;;;22.98;60.36;101042.25;5079223;28;20944;-60
2022/06/06 04:32:18;;;;;;;8.63;6.85;;;;;;;23.20;60.02;101045.88;5077945;28;20417;-61
2022/06/06 04:35:06;;;;;;;10.25;7.65;;;;;;;23.11;60.24;101043.84;5077529;28;20804;-60
2022/06/06 04:37:39;;;;;;;9.23;7.18;;;;;;;22.60;61.24;101041.88;5078578;28;20413;-61
2022/06/06 04:40:14;;;;;;;8.63;7.25;;;;;;;22.65;60.99;101043.81;5080057;28;20423;-61
2022/06/06 04:42:45;;;;;;;43.10;11.38;;;;;;;22.79;60.59;101055.97;5079318;28;20423;-61
2022/06/06 04:45:19;;;;;;;9.07;7.72;;;;;;;23.06;60.70;101053.50;5082012;28;20436;-61
2022/06/06 04:47:49;;;;;;;8.90;7.70;;;;;;;22.60;60.77;101054.53;5075995;28;20434;-61
2022/06/06 04:50:20;;;;;;;10.35;7.90;;;;;;;22.68;61.24;101054.16;5076030;28;20936;-61
2022/06/06 04:52:50;;;;;;;10.13;7.82;;;;;;;22.93;60.15;101056.50;5079774;28;20436;-62
2022/06/06 04:55:20;;;;;;;9.63;7.63;;;;;;;22.88;60.13;101062.63;5081943;28;20454;-60
2022/06/06 04:57:49;;;;;;;8.93;7.57;;;;;;;22.99;59.95;101069.03;5076948;28;20416;-60
2022/06/06 05:00:17;;;;;;;10.15;7.72;;;;;;;22.83;60.15;101064.41;5075363;28;20407;-59
2022/06/06 05:02:44;;;;;;;8.25;7.40;;;;;;;22.62;60.85;101066.75;5084433;28;20409;-60
2022/06/06 05:05:12;;;;;;;10.20;7.47;;;;;;;22.96;59.81;101088.47;5082022;28;20409;-61
2022/06/06 05:07:54;;;;;;;8.88;7.32;;;;;;;22.85;60.07;101083.91;5082891;28;20421;-60
2022/06/06 05:10:43;;;;;;;7.95;7.15;;;;;;;22.84;59.73;101083.09;5077730;28;20425;-60
2022/06/06 05:13:32;;;;;;;11.77;7.90;;;;;;;22.60;60.82;101103.16;5076364;28;20417;-60
2022/06/06 05:16:14;;;;;;;8.00;7.20;;;;;;;22.49;60.61;101096.75;5081635;28;20918;-60
2022/06/06 05:19:02;;;;;;;8.02;6.93;;;;;;;22.43;60.40;101093.13;5078625;28;20908;-60
2022/06/06 05:22:05;;;;;;;8.77;7.20;;;;;;;22.13;61.30;101098.72;5080957;28;20405;-60
2022/06/06 05:25:02;;;;;;;9.52;6.80;;;;;;;22.11;61.50;101095.41;5075975;28;20409;-60
2022/06/06 05:28:03;;;;;;;7.30;6.60;;;;;;;22.10;61.48;101115.38;5074858;28;20419;-60
2022/06/06 05:30:38;;;;;;;7.47;6.78;;;;;;;22.26;60.91;101109.28;5072838;28;20787;-60
2022/06/06 05:33:10;;;;;;;7.32;6.63;;;;;;;22.05;61.72;101113.38;5085002;28;20406;-60
2022/06/06 05:35:50;;;;;;;7.10;6.40;;;;;;;22.12;61.45;101126.75;5082984;28;20405;-60
2022/06/06 05:38:33;;;;;;;8.63;6.82;;;;;;;22.14;61.33;101120.06;5078986;28;20482;-60
2022/06/06 05:41:13;;;;;;;7.05;6.35;;;;;;;22.20;61.12;101125.56;5080920;28;20413;-60
2022/06/06 05:43:48;;;;;;;7.23;6.53;;;;;;;22.14;61.26;101138.13;5084731;28;20786;-60
2022/06/06 05:46:27;;;;;;;7.43;6.32;;;;;;;22.34;61.11;101135.09;5076585;28;20416;-60
2022/06/06 05:49:10;;;;;;;8.63;7.20;;;;;;;22.23;61.25;101133.19;5076351;28;20425;-60
2022/06/06 05:51:48;;;;;;;7.88;6.55;;;;;;;22.26;61.34;101132.72;5079859;28;20411;-60
2022/06/06 05:54:24;;;;;;;7.43;6.53;;;;;;;22.36;60.69;101140.25;5082271;28;20416;-60
2022/06/06 05:57:29;;;;;;;6.80;6.13;;;;;;;22.45;60.68;101155.84;5081148;28;20417;-61
2022/06/06 06:00:05;;;;;;;7.03;6.33;;;;;;;22.48;60.18;101149.97;5068881;28;20418;-60
2022/06/06 06:02:48;;;;;;;6.53;5.93;;;;;;;22.45;60.29;101146.91;5068212;28;20816;-60
2022/06/06 06:05:20;;;;;;;7.30;6.60;;;;;;;22.42;60.29;101164.44;5069078;28;20403;-60
2022/06/06 06:08:00;;;;;;;7.93;7.00;;;;;;;22.39;60.69;101175.72;5078898;28;20433;-60
2022/06/06 06:13:27;;;;;;;8.00;6.75;;;;;;;22.78;59.64;101161.63;5072759;27;20404;-59
2022/06/06 06:15:58;;;;;;;8.23;6.75;;;;;;;22.33;60.96;101106.44;5068873;28;20486;-59
2022/06/06 06:18:32;;;;;;;9.57;7.53;;;;;;;22.01;62.98;101150.00;5072756;28;20424;-59
2022/06/06 06:21:02;;;;;;;11.15;7.57;;;;;;;22.41;62.77;101179.00;5068914;28;20404;-59
2022/06/06 06:23:35;;;;;;;10.38;8.02;;;;;;;22.57;61.99;101174.72;5065341;28;20934;-59
2022/06/06 06:26:05;;;;;;;9.40;8.00;;;;;;;22.66;61.84;101156.28;5065949;28;20410;-59
2022/06/06 06:28:36;;;;;;;7.97;7.18;;;;;;;22.71;61.48;101150.97;5065981;28;20417;-59
2022/06/06 06:31:19;;;;;;;8.95;7.20;;;;;;;22.68;61.41;101156.84;5071160;28;20514;-59
2022/06/06 06:33:58;;;;;;;8.55;7.40;;;;;;;22.79;61.23;101136.25;5069813;28;20410;-59
2022/06/06 06:36:43;;;;;;;8.80;7.90;;;;;;;22.39;62.71;101137.09;5067007;28;20956;-59
2022/06/06 06:39:26;;;;;;;9.27;7.80;;;;;;;22.46;62.08;101143.16;5066492;28;20850;-59
2022/06/06 06:42:07;;;;;;;9.05;7.90;;;;;;;22.64;61.77;101129.47;5065535;28;20428;-59
2022/06/06 06:44:40;;;;;;;8.13;7.33;;;;;;;22.76;61.42;101139.44;5065289;28;20415;-59
2022/06/06 06:47:11;;;;;;;8.63;7.72;;;;;;;23.02;61.33;101148.84;5066779;28;20412;-59
2022/06/06 06:49:43;;;;;;;10.63;9.10;;;;;;;23.27;61.79;101152.03;5066865;28;20425;-59
2022/06/06 06:52:26;;;;;;;11.05;8.80;;;;;;;23.36;60.85;101155.16;5064464;28;20433;-59
2022/06/06 06:55:06;;;;;;;12.80;8.60;;;;;;;23.49;60.39;101151.31;5066299;28;20430;-59
2022/06/06 06:57:49;;;;;;;9.82;8.82;;;;;;;23.61;60.75;101146.63;5065769;28;20418;-59
2022/06/06 07:00:20;;;;;;;9.10;8.15;;;;;;;23.66;60.04;101145.91;5071581;28;20425;-59
2022/06/06 07:08:51;;;;;;;9.10;7.35;;;;;;;23.69;59.81;101147.28;5080729;28;20443;-59
2022/06/06 07:11:34;;;;;;;8.98;7.40;;;;;;;23.76;59.71;101140.63;5080379;28;20425;-59
2022/06/06 07:14:06;;;;;;;9.67;7.57;;;;;;;24.12;59.00;101145.78;5085594;28;20411;-59
2022/06/06 07:16:36;;;;;;;8.27;7.18;;;;;;;23.90;59.47;101143.84;5080232;28;20407;-59
2022/06/06 07:19:08;;;;;;;8.33;6.97;;;;;;;24.24;58.80;101146.50;5076521;28;20432;-59
2022/06/06 07:21:36;;;;;;;8.98;7.00;;;;;;;24.17;58.59;101149.38;5078703;28;20426;-59
2022/06/06 07:24:07;;;;;;;7.32;6.63;;;;;;;24.09;58.85;101144.38;5053121;28;20408;-59
2022/06/06 07:26:38;;;;;;;7.57;6.63;;;;;;;24.13;58.14;101145.53;5065806;28;20946;-59
2022/06/06 07:29:06;;;;;;;7.57;6.88;;;;;;;23.95;59.08;101143.09;5065754;28;20914;-58
2022/06/06 07:31:54;;;;;;;9.13;6.85;;;;;;;24.22;59.04;101152.16;5055465;28;20432;-59
2022/06/06 07:34:52;;;;;;;7.63;6.93;;;;;;;24.64;58.08;101152.69;5070576;28;20411;-59
2022/06/06 07:37:36;;;;;;;7.83;7.10;;;;;;;24.40;58.00;101158.34;5066239;28;20796;-59
2022/06/06 07:40:13;;;;;;;7.20;6.50;;;;;;;24.64;57.18;101144.56;5065373;28;20403;-59
2022/06/06 07:42:56;;;;;;;7.85;6.00;;;;;;;24.53;56.82;101147.16;5051425;28;20982;-59
2022/06/06 07:45:29;;;;;;;7.90;6.07;;;;;;;24.45;57.30;101152.16;5052279;28;20424;-59
2022/06/06 07:48:25;;;;;;;6.22;5.63;;;;;;;24.12;57.94;101148.50;5070431;28;20476;-58
2022/06/06 07:50:59;;;;;;;6.47;5.78;;;;;;;24.32;57.84;101154.16;5066563;28;20425;-58
2022/06/06 07:53:36;;;;;;;6.20;5.60;;;;;;;24.11;59.60;101161.22;5071421;28;20407;-59
2022/06/06 07:56:11;;;;;;;6.55;5.68;;;;;;;24.14;58.82;101165.31;5055284;28;20427;-59
2022/06/06 07:58:46;;;;;;;7.88;5.68;;;;;;;24.42;57.89;101170.56;5051770;28;20413;-59
2022/06/06 08:01:19;;;;;;;5.32;4.82;;;;;;;24.12;57.63;101170.16;5051157;28;20417;-59
2022/06/06 08:03:52;;;;;;;5.55;5.05;;;;;;;23.78;57.60;101170.97;5051495;28;20430;-59
2022/06/06 08:06:31;;;;;;;6.75;5.47;;;;;;;24.00;58.01;101176.50;5065059;28;20411;-59
2022/06/06 08:09:17;;;;;;;5.00;4.50;;;;;;;24.24;56.82;101177.09;5051410;28;20428;-59
2022/06/06 08:11:58;;;;;;;6.50;5.00;;;;;;;24.27;56.66;101175.78;5051053;28;20440;-59
2022/06/06 08:14:36;;;;;;;5.03;4.57;;;;;;;24.07;57.11;101178.22;5051051;28;20428;-59
2022/06/06 08:17:15;;;;;;;5.20;4.70;;;;;;;24.04;56.85;101176.84;5057501;28;20415;-59
2022/06/06 08:19:57;;;;;;;6.70;5.07;;;;;;;23.87;57.51;101179.53;5071053;28;20411;-58
2022/06/06 08:22:26;;;;;;;5.53;5.03;;;;;;;24.01;57.88;101182.72;5062409;28;20465;-59
2022/06/06 08:24:55;;;;;;;6.80;5.20;;;;;;;24.27;57.25;101174.97;5050801;28;20409;-59
2022/06/06 08:27:21;;;;;;;6.15;4.70;;;;;;;24.47;56.43;101177.13;5058035;28;20417;-59
2022/06/06 08:29:49;;;;;;;6.03;5.07;;;;;;;24.58;56.50;101176.22;5057344;28;20432;-59
2022/06/06 08:32:17;;;;;;;5.88;5.00;;;;;;;24.62;56.15;101180.06;5055877;28;20421;-59
2022/06/06 08:34:43;;;;;;;6.10;5.23;;;;;;;24.54;56.23;101175.91;5069523;28;20800;-59
2022/06/06 08:37:56;;;;;;;6.03;5.43;;;;;;;24.35;56.81;101179.97;5052329;28;20419;-59
2022/06/06 08:40:50;;;;;;;7.75;6.07;;;;;;;24.61;56.39;101175.69;5063773;28;20425;-59
2022/06/06 08:43:23;;;;;;;8.38;6.35;;;;;;;24.68;56.22;101176.31;5058190;28;20434;-59
2022/06/06 08:45:53;;;;;;;7.43;5.33;;;;;;;24.71;56.43;101172.31;5056399;28;20423;-59
2022/06/06 08:48:39;;;;;;;5.40;5.00;;;;;;;24.72;55.84;101174.78;5060699;28;20430;-59
2022/06/06 08:51:23;;;;;;;7.20;5.10;;;;;;;24.80;55.90;101171.59;5056729;28;20416;-59
2022/06/06 08:54:45;;;;;;;8.07;6.07;;;;;;;24.78;57.01;101176.44;5070371;28;20421;-59
2022/06/06 08:57:28;;;;;;;8.98;6.97;;;;;;;25.06;56.82;101171.03;5026098;28;20901;-59
2022/06/06 09:00:11;;;;;;;7.38;6.57;;;;;;;25.17;56.63;101176.31;5064182;28;20421;-59
2022/06/06 09:03:11;;;;;;;8.65;6.20;;;;;;;25.27;56.64;101174.81;5063383;28;20445;-59
2022/06/06 09:06:26;;;;;;;7.00;5.95;;;;;;;25.35;55.98;101180.59;5061599;28;20471;-59
2022/06/06 09:09:32;;;;;;;9.57;7.15;;;;;;;25.41;55.79;101183.34;5029679;28;20413;-59
2022/06/06 09:12:44;;;;;;;10.50;6.90;;;;;;;25.47;56.17;101198.59;5054421;28;20406;-59
2022/06/06 09:15:47;;;;;;;7.53;6.60;;;;;;;25.51;55.88;101195.09;5064508;28;20936;-59
2022/06/06 09:18:58;;;;;;;11.60;7.10;;;;;;;25.59;56.07;101188.41;5063939;28;20411;-59
2022/06/06 09:21:43;;;;;;;7.27;6.00;;;;;;;25.63;55.29;101192.22;5057172;28;20412;-59
2022/06/06 09:24:39;;;;;;;8.73;6.22;;;;;;;25.67;55.36;101190.63;5056793;28;20897;-59
2022/06/06 09:27:34;;;;;;;8.50;6.60;;;;;;;25.70;55.44;101183.88;5057187;28;20452;-59
2022/06/06 09:30:18;;;;;;;7.05;5.88;;;;;;;25.74;55.39;101191.22;5067729;28;20446;-59
2022/06/06 09:33:23;;;;;;;6.80;5.90;;;;;;;25.79;54.68;101192.34;5059240;28;20414;-59
2022/06/06 09:36:04;;;;;;;9.55;6.90;;;;;;;25.77;54.76;101189.91;5063551;28;20427;-59
2022/06/06 09:38:56;;;;;;;9.27;6.85;;;;;;;25.82;54.76;101195.38;5063617;28;20410;-59
2022/06/06 09:41:36;;;;;;;7.05;6.30;;;;;;;25.87;54.43;101203.53;5051121;28;20412;-59
2022/06/06 09:44:13;;;;;;;8.80;6.82;;;;;;;25.94;54.37;101198.72;5063238;28;21601;-59
2022/06/06 09:47:29;;;;;;;15.68;9.65;;;;;;;25.94;54.71;101200.63;5057317;28;20450;-59
2022/06/06 09:50:33;;;;;;;10.77;6.90;;;;;;;26.01;54.13;101203.94;5049298;28;20418;-59
2022/06/06 09:53:37;;;;;;;7.22;6.50;;;;;;;26.08;53.71;101195.56;5049225;28;20408;-59
2022/06/06 09:59:40;;;;;;;10.20;7.20;;;;;;;25.84;54.76;101182.34;5063073;28;20414;-59
2022/06/06 10:03:00;;;;;;;10.33;6.60;;;;;;;26.06;54.01;101176.00;5060160;28;20454;-59
2022/06/06 10:06:00;;;;;;;8.47;6.87;;;;;;;26.27;54.17;101174.19;5049010;28;20430;-59
2022/06/06 10:09:08;;;;;;;6.53;5.82;;;;;;;26.29;53.11;101164.69;5066335;28;20415;-59
2022/06/06 10:12:14;;;;;;;12.70;6.40;;;;;;;26.19;53.64;101164.63;5051791;28;20434;-59
2022/06/06 10:15:03;;;;;;;6.28;5.63;;;;;;;26.28;52.96;101154.91;5048583;28;20417;-60
2022/06/06 10:17:52;;;;;;;7.25;5.82;;;;;;;26.28;53.27;101157.63;5059150;28;20430;-59
2022/06/06 10:20:32;;;;;;;6.00;4.90;;;;;;;26.40;52.04;101156.56;5054570;28;20415;-59
2022/06/06 10:23:32;;;;;;;7.50;5.30;;;;;;;26.30;53.57;101150.00;5056138;28;20459;-59
2022/06/06 10:26:29;;;;;;;5.32;4.82;;;;;;;26.27;52.85;101157.88;5055436;28;20418;-59
2022/06/06 10:30:10;;;;;;;5.47;4.50;;;;;;;26.13;52.58;101157.56;5054929;28;20418;-59
2022/06/06 10:32:39;;;;;;;5.60;5.00;;;;;;;26.25;52.88;101163.59;5066183;28;20797;-59
2022/06/06 10:35:24;;;;;;;6.05;4.60;;;;;;;26.28;52.75;101157.63;5064520;28;20451;-59
2022/06/06 10:38:03;;;;;;;6.20;4.70;;;;;;;26.50;52.48;101157.44;5068473;28;20775;-60
2022/06/06 10:41:00;;;;;;;5.70;4.55;;;;;;;26.66;51.86;101162.97;5059192;28;20418;-59
2022/06/06 10:43:39;;;;;;;7.60;4.30;;;;;;;26.43;51.39;101165.00;5058547;28;20423;-59
2022/06/06 10:46:11;;;;;;;4.78;4.28;;;;;;;26.31;52.13;101175.31;5065127;28;20902;-59
2022/06/06 10:49:02;;;;;;;6.82;4.22;;;;;;;26.50;51.70;101172.94;5048920;28;20412;-59
2022/06/06 10:52:05;;;;;;;4.20;3.78;;;;;;;26.62;51.39;101167.31;5042032;28;20413;-59
2022/06/06 10:55:15;;;;;;;4.45;3.85;;;;;;;25.97;52.12;101164.00;5062442;28;20806;-59
2022/06/06 10:58:19;;;;;;;4.90;4.20;;;;;;;25.94;52.71;101159.88;5063741;28;20490;-59
2022/06/06 11:01:18;;;;;;;5.60;3.90;;;;;;;25.98;52.55;101157.47;5072593;28;20418;-59
2022/06/06 11:04:11;;;;;;;5.10;3.80;;;;;;;26.09;51.55;101159.16;5052440;28;20432;-59
2022/06/06 11:07:10;;;;;;;4.90;3.42;;;;;;;26.28;50.50;101152.19;5070797;28;20421;-59
2022/06/06 11:09:54;;;;;;;3.45;3.05;;;;;;;26.10;50.49;101150.72;5054768;28;20408;-59
2022/06/06 11:13:10;;;;;;;3.95;2.88;;;;;;;26.19;50.27;101129.31;5063007;28;20499;-59
2022/06/06 11:15:41;;;;;;;5.38;2.88;;;;;;;25.97;50.70;101125.97;5029972;28;20436;-60
2022/06/06 11:18:36;;;;;;;3.97;3.05;;;;;;;25.89;50.55;101125.34;5043827;28;20906;-59
2022/06/06 11:21:34;;;;;;;3.63;3.00;;;;;;;25.85;51.75;101124.22;5056231;28;20407;-59
2022/06/06 11:24:09;;;;;;;3.75;3.45;;;;;;;26.22;51.50;101128.00;5064352;28;20459;-60
2022/06/06 11:27:04;;;;;;;4.40;3.30;;;;;;;26.42;50.63;101138.13;5066037;28;20417;-60
2022/06/06 11:30:02;;;;;;;3.83;3.20;;;;;;;26.59;50.54;101135.19;5039675;28;20509;-60
2022/06/06 11:33:00;;;;;;;6.03;3.47;;;;;;;26.58;49.39;101133.53;5052091;28;20413;-59
2022/06/06 11:35:36;;;;;;;4.57;3.50;;;;;;;26.62;48.86;101129.25;5069469;28;20411;-59
2022/06/06 11:38:55;;;;;;;5.35;3.40;;;;;;;26.66;50.05;101114.84;5072013;28;20421;-59
2022/06/06 11:41:36;;;;;;;4.53;3.28;;;;;;;26.85;50.16;101123.31;5051763;28;20400;-59
2022/06/06 11:44:12;;;;;;;4.57;3.17;;;;;;;26.78;50.32;101117.31;5065961;28;20438;-59
2022/06/06 11:47:24;;;;;;;4.13;3.30;;;;;;;26.48;50.69;101115.31;5072004;28;20403;-60
2022/06/06 11:50:20;;;;;;;3.83;2.97;;;;;;;26.43;49.10;101107.13;5065137;28;20800;-60
2022/06/06 11:53:26;;;;;;;4.00;2.80;;;;;;;26.39;48.18;101104.13;5065971;28;20812;-60
2022/06/06 11:56:07;;;;;;;3.22;2.92;;;;;;;26.44;49.41;101109.56;5064640;28;20411;-59
2022/06/06 11:59:06;;;;;;;3.42;2.78;;;;;;;26.70;48.48;101110.50;5069902;28;20579;-60
2022/06/06 12:02:07;;;;;;;4.53;2.72;;;;;;;26.75;48.45;101103.44;5064527;28;20411;-60
2022/06/06 12:05:10;;;;;;;3.10;2.80;;;;;;;26.66;47.59;101090.34;5070739;28;20410;-60
2022/06/06 12:08:15;;;;;;;5.00;2.80;;;;;;;26.99;47.18;101093.69;5062632;28;20413;-60
2022/06/06 12:10:53;;;;;;;4.05;2.45;;;;;;;27.16;46.12;101085.25;5068852;28;20417;-60
2022/06/06 12:13:51;;;;;;;3.90;2.83;;;;;;;27.23;46.38;101085.78;5065443;28;20490;-59
2022/06/06 12:16:39;;;;;;;2.97;2.67;;;;;;;27.22;47.16;101081.41;5064614;28;20411;-60
2022/06/06 12:19:41;;;;;;;3.78;2.75;;;;;;;27.34;47.32;101081.19;5062274;28;20417;-60
2022/06/06 12:22:38;;;;;;;3.20;2.90;;;;;;;27.14;48.05;101076.53;5067403;28;20733;-60
2022/06/06 12:25:58;;;;;;;3.00;2.80;;;;;;;27.54;46.98;101071.38;5068688;28;20972;-60
2022/06/06 12:29:10;;;;;;;3.20;2.60;;;;;;;27.50;47.31;101078.47;5007090;28;20419;-60
2022/06/06 12:31:47;;;;;;;3.70;2.63;;;;;;;27.35;47.14;101061.06;5070307;28;20419;-58
2022/06/06 12:34:18;;;;;;;5.53;2.60;;;;;;;27.24;46.45;101056.66;5070320;28;20461;-60
2022/06/06 12:36:54;;;;;;;2.80;2.60;;;;;;;26.96;46.45;101055.31;5066414;28;20426;-60
2022/06/06 12:39:34;;;;;;;3.50;2.60;;;;;;;26.93;46.85;101051.22;5069332;28;20411;-60
2022/06/06 12:42:12;;;;;;;4.03;2.70;;;;;;;26.79;46.84;101037.34;5058470;28;20415;-60
2022/06/06 12:45:16;;;;;;;4.30;2.53;;;;;;;26.70;46.78;101038.97;5066620;28;20489;-59
2022/06/06 12:48:01;;;;;;;5.20;3.05;;;;;;;26.75;46.28;101043.59;5069440;28;20478;-59
2022/06/06 12:50:42;;;;;;;2.95;2.60;;;;;;;26.83;46.11;101035.72;5069462;28;20916;-60
2022/06/06 12:53:25;;;;;;;3.00;2.55;;;;;;;26.72;47.59;101041.41;5069905;28;20415;-59
2022/06/06 12:56:17;;;;;;;2.70;2.50;;;;;;;26.63;46.97;101044.69;5069907;28;20407;-60